sensor_id;sensor_type;location;lat;lon;timestamp;P1;durP1;ratioP1;P2;durP2;ratioP2
75890;SDS011;64571;47.512;19.054;2023-10-08T00:01:36;7.67;;;2.50;;
75890;SDS011;64571;47.512;19.054;2023-10-08T00:04:44;9.23;;;2.60;;
75890;SDS011;64571;47.512;19.054;2023-10-08T00:07:47;7.20;;;2.50;;
75890;SDS011;64571;47.512;19.054;2023-10-08T00:10:52;7.57;;;2.40;;
75890;SDS011;64571;47.512;19.054;2023-10-08T00:13:55;11.57;;;2.50;;
75890;SDS011;64571;47.512;19.054;2023-10-08T00:16:59;8.03;;;2.63;;
75890;SDS011;64571;47.512;19.054;2023-10-08T00:20:02;9.85;;;2.40;;
75890;SDS011;64571;47.512;19.054;2023-10-08T00:23:06;9.48;;;2.67;;
75890;SDS011;64571;47.512;19.054;2023-10-08T00:26:12;11.48;;;3.15;;
75890;SDS011;64571;47.512;19.054;2023-10-08T00:29:15;10.38;;;2.58;;
75890;SDS011;64571;47.512;19.054;2023-10-08T00:32:18;8.60;;;2.67;;
75890;SDS011;64571;47.512;19.054;2023-10-08T00:35:21;7.97;;;2.58;;
75890;SDS011;64571;47.512;19.054;2023-10-08T00:38:24;7.93;;;2.35;;
75890;SDS011;64571;47.512;19.054;2023-10-08T00:41:34;7.28;;;2.50;;
75890;SDS011;64571;47.512;19.054;2023-10-08T00:44:37;10.45;;;2.72;;
75890;SDS011;64571;47.512;19.054;2023-10-08T00:47:58;7.90;;;2.37;;
75890;SDS011;64571;47.512;19.054;2023-10-08T00:51:02;10.32;;;2.85;;
75890;SDS011;64571;47.512;19.054;2023-10-08T00:54:28;7.87;;;2.62;;
75890;SDS011;64571;47.512;19.054;2023-10-08T00:57:35;6.25;;;2.17;;
75890;SDS011;64571;47.512;19.054;2023-10-08T01:00:39;7.90;;;2.30;;
75890;SDS011;64571;47.512;19.054;2023-10-08T01:03:44;8.47;;;2.43;;
75890;SDS011;64571;47.512;19.054;2023-10-08T01:06:48;17.50;;;2.60;;
75890;SDS011;64571;47.512;19.054;2023-10-08T01:10:01;8.15;;;2.60;;
75890;SDS011;64571;47.512;19.054;2023-10-08T01:13:13;7.22;;;2.25;;
75890;SDS011;64571;47.512;19.054;2023-10-08T01:16:21;13.32;;;2.62;;
75890;SDS011;64571;47.512;19.054;2023-10-08T01:19:24;7.23;;;2.63;;
75890;SDS011;64571;47.512;19.054;2023-10-08T01:22:28;14.80;;;2.70;;
75890;SDS011;64571;47.512;19.054;2023-10-08T01:25:32;6.70;;;2.53;;
75890;SDS011;64571;47.512;19.054;2023-10-08T01:28:36;13.13;;;3.10;;
75890;SDS011;64571;47.512;19.054;2023-10-08T01:31:39;8.80;;;2.97;;
75890;SDS011;64571;47.512;19.054;2023-10-08T01:34:42;7.23;;;2.80;;
75890;SDS011;64571;47.512;19.054;2023-10-08T01:37:49;10.05;;;2.35;;
75890;SDS011;64571;47.512;19.054;2023-10-08T01:40:52;8.18;;;2.40;;
75890;SDS011;64571;47.512;19.054;2023-10-08T01:43:55;8.90;;;2.78;;
75890;SDS011;64571;47.512;19.054;2023-10-08T01:47:01;10.02;;;2.55;;
75890;SDS011;64571;47.512;19.054;2023-10-08T01:50:06;7.40;;;2.27;;
75890;SDS011;64571;47.512;19.054;2023-10-08T01:53:20;7.40;;;2.58;;
75890;SDS011;64571;47.512;19.054;2023-10-08T01:56:23;8.38;;;2.40;;
75890;SDS011;64571;47.512;19.054;2023-10-08T01:59:26;6.32;;;2.37;;
75890;SDS011;64571;47.512;19.054;2023-10-08T02:02:29;9.27;;;2.75;;
75890;SDS011;64571;47.512;19.054;2023-10-08T02:05:32;7.70;;;2.50;;
75890;SDS011;64571;47.512;19.054;2023-10-08T02:08:36;7.45;;;2.28;;
75890;SDS011;64571;47.512;19.054;2023-10-08T02:11:45;6.37;;;2.42;;
75890;SDS011;64571;47.512;19.054;2023-10-08T02:14:53;8.55;;;2.60;;
75890;SDS011;64571;47.512;19.054;2023-10-08T02:17:56;12.70;;;2.65;;
75890;SDS011;64571;47.512;19.054;2023-10-08T02:20:59;13.43;;;3.07;;
75890;SDS011;64571;47.512;19.054;2023-10-08T02:24:01;10.02;;;2.28;;
75890;SDS011;64571;47.512;19.054;2023-10-08T02:27:05;11.50;;;2.60;;
75890;SDS011;64571;47.512;19.054;2023-10-08T02:30:08;10.80;;;2.60;;
75890;SDS011;64571;47.512;19.054;2023-10-08T02:33:14;9.38;;;2.30;;
75890;SDS011;64571;47.512;19.054;2023-10-08T02:36:20;8.87;;;3.03;;
75890;SDS011;64571;47.512;19.054;2023-10-08T02:39:22;9.23;;;2.53;;
75890;SDS011;64571;47.512;19.054;2023-10-08T02:42:28;10.65;;;2.62;;
75890;SDS011;64571;47.512;19.054;2023-10-08T02:45:30;9.60;;;2.50;;
75890;SDS011;64571;47.512;19.054;2023-10-08T02:48:33;14.05;;;2.35;;
75890;SDS011;64571;47.512;19.054;2023-10-08T02:51:38;9.27;;;2.53;;
75890;SDS011;64571;47.512;19.054;2023-10-08T02:54:43;9.15;;;2.37;;
75890;SDS011;64571;47.512;19.054;2023-10-08T02:57:45;11.65;;;2.62;;
75890;SDS011;64571;47.512;19.054;2023-10-08T03:00:48;15.25;;;2.60;;
75890;SDS011;64571;47.512;19.054;2023-10-08T03:03:52;10.13;;;2.08;;
75890;SDS011;64571;47.512;19.054;2023-10-08T03:07:06;13.27;;;2.60;;
75890;SDS011;64571;47.512;19.054;2023-10-08T03:10:13;9.30;;;2.47;;
75890;SDS011;64571;47.512;19.054;2023-10-08T03:13:22;9.38;;;2.70;;
75890;SDS011;64571;47.512;19.054;2023-10-08T03:16:25;13.07;;;2.55;;
75890;SDS011;64571;47.512;19.054;2023-10-08T03:19:35;10.13;;;2.65;;
75890;SDS011;64571;47.512;19.054;2023-10-08T03:22:40;8.40;;;2.17;;
75890;SDS011;64571;47.512;19.054;2023-10-08T03:25:47;7.85;;;2.05;;
75890;SDS011;64571;47.512;19.054;2023-10-08T03:28:52;9.38;;;2.00;;
75890;SDS011;64571;47.512;19.054;2023-10-08T03:32:00;10.32;;;2.40;;
75890;SDS011;64571;47.512;19.054;2023-10-08T03:35:08;8.55;;;2.58;;
75890;SDS011;64571;47.512;19.054;2023-10-08T03:38:13;12.07;;;2.27;;
75890;SDS011;64571;47.512;19.054;2023-10-08T03:41:31;7.45;;;2.10;;
75890;SDS011;64571;47.512;19.054;2023-10-08T03:44:34;7.20;;;2.70;;
75890;SDS011;64571;47.512;19.054;2023-10-08T03:47:40;11.68;;;3.55;;
75890;SDS011;64571;47.512;19.054;2023-10-08T03:50:49;11.38;;;2.42;;
75890;SDS011;64571;47.512;19.054;2023-10-08T03:53:59;6.97;;;2.17;;
75890;SDS011;64571;47.512;19.054;2023-10-08T03:57:08;9.60;;;2.55;;
75890;SDS011;64571;47.512;19.054;2023-10-08T04:00:38;6.47;;;1.92;;
75890;SDS011;64571;47.512;19.054;2023-10-08T04:03:44;9.85;;;2.40;;
75890;SDS011;64571;47.512;19.054;2023-10-08T04:06:52;8.32;;;2.40;;
75890;SDS011;64571;47.512;19.054;2023-10-08T04:09:57;10.80;;;2.40;;
75890;SDS011;64571;47.512;19.054;2023-10-08T04:13:13;9.23;;;2.58;;
75890;SDS011;64571;47.512;19.054;2023-10-08T04:16:18;9.60;;;2.45;;
75890;SDS011;64571;47.512;19.054;2023-10-08T04:19:22;7.35;;;1.92;;
75890;SDS011;64571;47.512;19.054;2023-10-08T04:22:31;9.15;;;2.55;;
75890;SDS011;64571;47.512;19.054;2023-10-08T04:25:34;11.43;;;2.80;;
75890;SDS011;64571;47.512;19.054;2023-10-08T04:28:36;9.00;;;2.35;;
75890;SDS011;64571;47.512;19.054;2023-10-08T04:31:39;12.52;;;2.30;;
75890;SDS011;64571;47.512;19.054;2023-10-08T04:34:46;7.80;;;2.00;;
75890;SDS011;64571;47.512;19.054;2023-10-08T04:37:49;9.32;;;2.03;;
75890;SDS011;64571;47.512;19.054;2023-10-08T04:40:55;8.57;;;2.00;;
75890;SDS011;64571;47.512;19.054;2023-10-08T04:44:04;9.73;;;2.28;;
75890;SDS011;64571;47.512;19.054;2023-10-08T04:47:11;8.50;;;1.85;;
75890;SDS011;64571;47.512;19.054;2023-10-08T04:50:34;7.97;;;2.03;;
75890;SDS011;64571;47.512;19.054;2023-10-08T04:53:39;6.87;;;2.28;;
75890;SDS011;64571;47.512;19.054;2023-10-08T04:56:46;7.70;;;1.97;;
75890;SDS011;64571;47.512;19.054;2023-10-08T04:59:51;8.95;;;2.62;;
75890;SDS011;64571;47.512;19.054;2023-10-08T05:02:56;7.93;;;2.10;;
75890;SDS011;64571;47.512;19.054;2023-10-08T05:06:06;15.77;;;2.60;;
75890;SDS011;64571;47.512;19.054;2023-10-08T05:09:10;9.68;;;2.75;;
75890;SDS011;64571;47.512;19.054;2023-10-08T05:12:23;12.17;;;2.63;;
75890;SDS011;64571;47.512;19.054;2023-10-08T05:15:34;7.15;;;2.33;;
75890;SDS011;64571;47.512;19.054;2023-10-08T05:18:57;9.07;;;2.28;;
75890;SDS011;64571;47.512;19.054;2023-10-08T05:22:26;8.82;;;2.60;;
75890;SDS011;64571;47.512;19.054;2023-10-08T05:25:29;9.00;;;2.65;;
75890;SDS011;64571;47.512;19.054;2023-10-08T05:28:55;11.67;;;2.27;;
75890;SDS011;64571;47.512;19.054;2023-10-08T05:32:16;7.40;;;2.45;;
75890;SDS011;64571;47.512;19.054;2023-10-08T05:35:39;10.77;;;3.20;;
75890;SDS011;64571;47.512;19.054;2023-10-08T05:38:43;9.80;;;2.47;;
75890;SDS011;64571;47.512;19.054;2023-10-08T05:42:02;7.45;;;2.10;;
75890;SDS011;64571;47.512;19.054;2023-10-08T05:45:15;7.13;;;2.13;;
75890;SDS011;64571;47.512;19.054;2023-10-08T05:48:34;9.55;;;2.40;;
75890;SDS011;64571;47.512;19.054;2023-10-08T05:51:48;7.60;;;2.33;;
75890;SDS011;64571;47.512;19.054;2023-10-08T05:54:50;9.35;;;2.67;;
75890;SDS011;64571;47.512;19.054;2023-10-08T05:58:18;8.82;;;3.10;;
75890;SDS011;64571;47.512;19.054;2023-10-08T06:01:21;7.60;;;2.60;;
75890;SDS011;64571;47.512;19.054;2023-10-08T06:04:42;9.05;;;2.30;;
75890;SDS011;64571;47.512;19.054;2023-10-08T06:07:55;7.90;;;2.53;;
75890;SDS011;64571;47.512;19.054;2023-10-08T06:10:59;16.33;;;2.60;;
75890;SDS011;64571;47.512;19.054;2023-10-08T06:14:09;6.20;;;1.83;;
75890;SDS011;64571;47.512;19.054;2023-10-08T06:17:39;9.00;;;2.70;;
75890;SDS011;64571;47.512;19.054;2023-10-08T06:21:02;9.50;;;3.20;;
75890;SDS011;64571;47.512;19.054;2023-10-08T06:24:17;8.60;;;2.40;;
75890;SDS011;64571;47.512;19.054;2023-10-08T06:27:21;10.70;;;2.20;;
75890;SDS011;64571;47.512;19.054;2023-10-08T06:30:27;9.88;;;2.37;;
75890;SDS011;64571;47.512;19.054;2023-10-08T06:33:31;13.03;;;2.50;;
75890;SDS011;64571;47.512;19.054;2023-10-08T06:36:36;9.38;;;2.53;;
75890;SDS011;64571;47.512;19.054;2023-10-08T06:39:38;12.68;;;3.92;;
75890;SDS011;64571;47.512;19.054;2023-10-08T06:42:51;13.62;;;3.72;;
75890;SDS011;64571;47.512;19.054;2023-10-08T06:45:53;12.55;;;4.45;;
75890;SDS011;64571;47.512;19.054;2023-10-08T06:49:03;9.83;;;3.93;;
75890;SDS011;64571;47.512;19.054;2023-10-08T06:52:08;10.15;;;2.72;;
75890;SDS011;64571;47.512;19.054;2023-10-08T06:55:13;10.77;;;2.92;;
75890;SDS011;64571;47.512;19.054;2023-10-08T06:58:19;9.52;;;2.58;;
75890;SDS011;64571;47.512;19.054;2023-10-08T07:01:22;8.27;;;2.70;;
75890;SDS011;64571;47.512;19.054;2023-10-08T07:04:27;10.57;;;2.77;;
75890;SDS011;64571;47.512;19.054;2023-10-08T07:07:32;8.82;;;3.10;;
75890;SDS011;64571;47.512;19.054;2023-10-08T07:10:41;9.10;;;2.92;;
75890;SDS011;64571;47.512;19.054;2023-10-08T07:13:44;12.30;;;3.33;;
75890;SDS011;64571;47.512;19.054;2023-10-08T07:16:47;10.18;;;2.87;;
75890;SDS011;64571;47.512;19.054;2023-10-08T07:19:53;9.50;;;3.03;;
75890;SDS011;64571;47.512;19.054;2023-10-08T07:22:55;9.73;;;2.37;;
75890;SDS011;64571;47.512;19.054;2023-10-08T07:25:59;7.05;;;2.45;;
75890;SDS011;64571;47.512;19.054;2023-10-08T07:29:20;11.65;;;3.65;;
75890;SDS011;64571;47.512;19.054;2023-10-08T07:32:22;11.50;;;2.37;;
75890;SDS011;64571;47.512;19.054;2023-10-08T07:35:28;7.80;;;2.10;;
75890;SDS011;64571;47.512;19.054;2023-10-08T07:38:32;7.22;;;2.22;;
75890;SDS011;64571;47.512;19.054;2023-10-08T07:41:37;10.60;;;2.60;;
75890;SDS011;64571;47.512;19.054;2023-10-08T07:44:41;8.90;;;2.55;;
75890;SDS011;64571;47.512;19.054;2023-10-08T07:47:43;8.85;;;2.65;;
75890;SDS011;64571;47.512;19.054;2023-10-08T07:50:47;7.77;;;2.67;;
75890;SDS011;64571;47.512;19.054;2023-10-08T07:53:50;11.15;;;2.80;;
75890;SDS011;64571;47.512;19.054;2023-10-08T07:56:58;11.27;;;2.50;;
75890;SDS011;64571;47.512;19.054;2023-10-08T08:00:19;7.62;;;2.30;;
75890;SDS011;64571;47.512;19.054;2023-10-08T08:03:26;7.22;;;2.67;;
75890;SDS011;64571;47.512;19.054;2023-10-08T08:06:29;9.33;;;2.70;;
75890;SDS011;64571;47.512;19.054;2023-10-08T08:09:36;7.55;;;2.70;;
75890;SDS011;64571;47.512;19.054;2023-10-08T08:12:40;9.50;;;3.12;;
75890;SDS011;64571;47.512;19.054;2023-10-08T08:15:43;9.80;;;3.58;;
75890;SDS011;64571;47.512;19.054;2023-10-08T08:18:54;9.20;;;3.72;;
75890;SDS011;64571;47.512;19.054;2023-10-08T08:22:01;10.50;;;3.77;;
75890;SDS011;64571;47.512;19.054;2023-10-08T08:25:05;9.25;;;3.80;;
75890;SDS011;64571;47.512;19.054;2023-10-08T08:28:18;12.70;;;3.42;;
75890;SDS011;64571;47.512;19.054;2023-10-08T08:31:23;10.65;;;3.62;;
75890;SDS011;64571;47.512;19.054;2023-10-08T08:34:29;9.88;;;3.30;;
75890;SDS011;64571;47.512;19.054;2023-10-08T08:37:33;13.23;;;3.87;;
75890;SDS011;64571;47.512;19.054;2023-10-08T08:40:38;11.12;;;4.05;;
75890;SDS011;64571;47.512;19.054;2023-10-08T08:43:42;10.52;;;3.53;;
75890;SDS011;64571;47.512;19.054;2023-10-08T08:46:46;11.15;;;3.65;;
75890;SDS011;64571;47.512;19.054;2023-10-08T08:49:50;12.25;;;4.03;;
75890;SDS011;64571;47.512;19.054;2023-10-08T08:52:57;10.90;;;3.80;;
75890;SDS011;64571;47.512;19.054;2023-10-08T08:56:00;10.48;;;4.10;;
75890;SDS011;64571;47.512;19.054;2023-10-08T08:59:06;7.12;;;2.65;;
75890;SDS011;64571;47.512;19.054;2023-10-08T09:02:14;13.62;;;2.87;;
75890;SDS011;64571;47.512;19.054;2023-10-08T09:05:18;8.70;;;2.50;;
75890;SDS011;64571;47.512;19.054;2023-10-08T09:08:35;8.60;;;2.60;;
75890;SDS011;64571;47.512;19.054;2023-10-08T09:11:40;9.32;;;2.72;;
75890;SDS011;64571;47.512;19.054;2023-10-08T09:14:45;7.28;;;2.70;;
75890;SDS011;64571;47.512;19.054;2023-10-08T09:17:49;12.73;;;3.45;;
75890;SDS011;64571;47.512;19.054;2023-10-08T09:20:51;12.18;;;3.33;;
75890;SDS011;64571;47.512;19.054;2023-10-08T09:23:54;13.43;;;2.73;;
75890;SDS011;64571;47.512;19.054;2023-10-08T09:26:57;11.48;;;3.12;;
75890;SDS011;64571;47.512;19.054;2023-10-08T09:30:03;10.00;;;2.62;;
75890;SDS011;64571;47.512;19.054;2023-10-08T09:33:11;8.18;;;2.80;;
75890;SDS011;64571;47.512;19.054;2023-10-08T09:36:15;10.88;;;2.90;;
75890;SDS011;64571;47.512;19.054;2023-10-08T09:39:18;7.10;;;2.47;;
75890;SDS011;64571;47.512;19.054;2023-10-08T09:42:25;14.55;;;2.83;;
75890;SDS011;64571;47.512;19.054;2023-10-08T09:45:29;9.15;;;2.58;;
75890;SDS011;64571;47.512;19.054;2023-10-08T09:48:34;10.35;;;2.65;;
75890;SDS011;64571;47.512;19.054;2023-10-08T09:51:39;12.55;;;2.95;;
75890;SDS011;64571;47.512;19.054;2023-10-08T09:54:43;6.53;;;2.20;;
75890;SDS011;64571;47.512;19.054;2023-10-08T09:57:51;9.25;;;2.85;;
75890;SDS011;64571;47.512;19.054;2023-10-08T10:00:55;14.60;;;2.65;;
75890;SDS011;64571;47.512;19.054;2023-10-08T10:04:00;7.55;;;2.47;;
75890;SDS011;64571;47.512;19.054;2023-10-08T10:07:10;8.10;;;2.72;;
75890;SDS011;64571;47.512;19.054;2023-10-08T10:10:27;12.37;;;2.70;;
75890;SDS011;64571;47.512;19.054;2023-10-08T10:13:38;7.10;;;2.78;;
75890;SDS011;64571;47.512;19.054;2023-10-08T10:16:48;13.55;;;2.62;;
75890;SDS011;64571;47.512;19.054;2023-10-08T10:19:54;14.75;;;2.78;;
75890;SDS011;64571;47.512;19.054;2023-10-08T10:22:58;9.07;;;2.20;;
75890;SDS011;64571;47.512;19.054;2023-10-08T10:26:01;9.83;;;2.50;;
75890;SDS011;64571;47.512;19.054;2023-10-08T10:32:17;6.22;;;1.58;;
75890;SDS011;64571;47.512;19.054;2023-10-08T10:35:21;6.32;;;2.05;;
75890;SDS011;64571;47.512;19.054;2023-10-08T10:38:23;6.70;;;1.75;;
75890;SDS011;64571;47.512;19.054;2023-10-08T10:41:29;5.80;;;1.80;;
75890;SDS011;64571;47.512;19.054;2023-10-08T10:44:32;4.35;;;1.40;;
75890;SDS011;64571;47.512;19.054;2023-10-08T10:47:39;5.53;;;2.08;;
75890;SDS011;64571;47.512;19.054;2023-10-08T10:50:46;5.85;;;1.30;;
75890;SDS011;64571;47.512;19.054;2023-10-08T10:54:07;3.72;;;1.08;;
75890;SDS011;64571;47.512;19.054;2023-10-08T10:57:10;3.50;;;0.93;;
75890;SDS011;64571;47.512;19.054;2023-10-08T11:00:20;7.75;;;0.75;;
75890;SDS011;64571;47.512;19.054;2023-10-08T11:03:51;4.05;;;1.00;;
75890;SDS011;64571;47.512;19.054;2023-10-08T11:06:54;2.87;;;0.77;;
75890;SDS011;64571;47.512;19.054;2023-10-08T11:10:01;3.10;;;0.70;;
75890;SDS011;64571;47.512;19.054;2023-10-08T11:13:06;3.30;;;0.93;;
75890;SDS011;64571;47.512;19.054;2023-10-08T11:16:17;2.62;;;0.70;;
75890;SDS011;64571;47.512;19.054;2023-10-08T11:19:22;7.55;;;0.82;;
75890;SDS011;64571;47.512;19.054;2023-10-08T11:22:40;4.12;;;1.20;;
75890;SDS011;64571;47.512;19.054;2023-10-08T11:25:57;3.97;;;0.90;;
75890;SDS011;64571;47.512;19.054;2023-10-08T11:29:05;1.60;;;0.30;;
75890;SDS011;64571;47.512;19.054;2023-10-08T11:32:16;3.37;;;0.62;;
75890;SDS011;64571;47.512;19.054;2023-10-08T11:35:20;2.60;;;0.60;;
75890;SDS011;64571;47.512;19.054;2023-10-08T11:38:22;2.87;;;0.88;;
75890;SDS011;64571;47.512;19.054;2023-10-08T11:41:26;3.60;;;0.70;;
75890;SDS011;64571;47.512;19.054;2023-10-08T11:44:31;4.57;;;0.80;;
75890;SDS011;64571;47.512;19.054;2023-10-08T11:47:39;3.85;;;1.20;;
75890;SDS011;64571;47.512;19.054;2023-10-08T11:50:44;3.87;;;0.60;;
75890;SDS011;64571;47.512;19.054;2023-10-08T11:53:47;2.70;;;0.62;;
75890;SDS011;64571;47.512;19.054;2023-10-08T11:56:50;2.47;;;0.60;;
75890;SDS011;64571;47.512;19.054;2023-10-08T11:59:53;3.50;;;1.00;;
75890;SDS011;64571;47.512;19.054;2023-10-08T12:02:57;2.70;;;0.60;;
75890;SDS011;64571;47.512;19.054;2023-10-08T12:06:00;3.33;;;0.57;;
75890;SDS011;64571;47.512;19.054;2023-10-08T12:09:03;2.80;;;0.60;;
75890;SDS011;64571;47.512;19.054;2023-10-08T12:12:14;4.82;;;1.25;;
75890;SDS011;64571;47.512;19.054;2023-10-08T12:15:18;5.37;;;0.63;;
75890;SDS011;64571;47.512;19.054;2023-10-08T12:18:22;2.20;;;0.50;;
75890;SDS011;64571;47.512;19.054;2023-10-08T12:21:29;2.58;;;0.40;;
75890;SDS011;64571;47.512;19.054;2023-10-08T12:24:32;2.95;;;0.50;;
75890;SDS011;64571;47.512;19.054;2023-10-08T12:27:35;3.28;;;0.55;;
75890;SDS011;64571;47.512;19.054;2023-10-08T12:30:38;3.57;;;0.60;;
75890;SDS011;64571;47.512;19.054;2023-10-08T12:33:46;3.33;;;0.50;;
75890;SDS011;64571;47.512;19.054;2023-10-08T12:36:49;2.65;;;0.70;;
75890;SDS011;64571;47.512;19.054;2023-10-08T12:39:52;2.92;;;0.55;;
75890;SDS011;64571;47.512;19.054;2023-10-08T12:43:14;3.00;;;0.60;;
75890;SDS011;64571;47.512;19.054;2023-10-08T12:46:21;2.83;;;0.80;;
75890;SDS011;64571;47.512;19.054;2023-10-08T12:49:28;4.82;;;0.75;;
75890;SDS011;64571;47.512;19.054;2023-10-08T12:52:36;2.85;;;0.62;;
75890;SDS011;64571;47.512;19.054;2023-10-08T12:55:38;2.62;;;0.57;;
75890;SDS011;64571;47.512;19.054;2023-10-08T12:58:42;9.75;;;0.80;;
75890;SDS011;64571;47.512;19.054;2023-10-08T13:01:50;3.17;;;0.60;;
75890;SDS011;64571;47.512;19.054;2023-10-08T13:04:54;3.05;;;0.68;;
75890;SDS011;64571;47.512;19.054;2023-10-08T13:07:58;4.40;;;0.65;;
75890;SDS011;64571;47.512;19.054;2023-10-08T13:11:05;3.83;;;0.70;;
75890;SDS011;64571;47.512;19.054;2023-10-08T13:14:08;2.05;;;0.35;;
75890;SDS011;64571;47.512;19.054;2023-10-08T13:17:11;2.20;;;0.50;;
75890;SDS011;64571;47.512;19.054;2023-10-08T13:20:13;3.10;;;0.60;;
75890;SDS011;64571;47.512;19.054;2023-10-08T13:23:16;2.58;;;0.50;;
75890;SDS011;64571;47.512;19.054;2023-10-08T13:26:21;2.97;;;0.73;;
75890;SDS011;64571;47.512;19.054;2023-10-08T13:29:26;2.33;;;0.55;;
75890;SDS011;64571;47.512;19.054;2023-10-08T13:32:29;3.00;;;0.70;;
75890;SDS011;64571;47.512;19.054;2023-10-08T13:35:32;3.08;;;0.70;;
75890;SDS011;64571;47.512;19.054;2023-10-08T13:38:36;3.75;;;0.55;;
75890;SDS011;64571;47.512;19.054;2023-10-08T13:41:39;2.67;;;0.70;;
75890;SDS011;64571;47.512;19.054;2023-10-08T13:44:44;4.18;;;1.02;;
75890;SDS011;64571;47.512;19.054;2023-10-08T13:47:47;2.70;;;0.70;;
75890;SDS011;64571;47.512;19.054;2023-10-08T13:50:50;3.28;;;0.65;;
75890;SDS011;64571;47.512;19.054;2023-10-08T13:53:53;2.58;;;0.57;;
75890;SDS011;64571;47.512;19.054;2023-10-08T13:57:02;3.42;;;0.80;;
75890;SDS011;64571;47.512;19.054;2023-10-08T14:00:05;4.87;;;0.77;;
75890;SDS011;64571;47.512;19.054;2023-10-08T14:03:18;3.07;;;0.80;;
75890;SDS011;64571;47.512;19.054;2023-10-08T14:06:24;2.37;;;0.50;;
75890;SDS011;64571;47.512;19.054;2023-10-08T14:09:28;3.25;;;0.70;;
75890;SDS011;64571;47.512;19.054;2023-10-08T14:12:40;3.15;;;0.88;;
75890;SDS011;64571;47.512;19.054;2023-10-08T14:15:43;3.92;;;0.95;;
75890;SDS011;64571;47.512;19.054;2023-10-08T14:18:50;7.53;;;1.50;;
75890;SDS011;64571;47.512;19.054;2023-10-08T14:21:57;3.45;;;1.08;;
75890;SDS011;64571;47.512;19.054;2023-10-08T14:25:06;3.55;;;1.00;;
75890;SDS011;64571;47.512;19.054;2023-10-08T14:28:18;3.65;;;0.90;;
75890;SDS011;64571;47.512;19.054;2023-10-08T14:31:24;3.12;;;0.88;;
75890;SDS011;64571;47.512;19.054;2023-10-08T14:34:29;4.10;;;1.10;;
75890;SDS011;64571;47.512;19.054;2023-10-08T14:37:51;4.80;;;1.00;;
75890;SDS011;64571;47.512;19.054;2023-10-08T14:41:13;3.90;;;1.00;;
75890;SDS011;64571;47.512;19.054;2023-10-08T14:44:34;3.40;;;0.90;;
75890;SDS011;64571;47.512;19.054;2023-10-08T14:47:37;4.07;;;0.85;;
75890;SDS011;64571;47.512;19.054;2023-10-08T14:50:40;3.77;;;0.93;;
75890;SDS011;64571;47.512;19.054;2023-10-08T14:53:45;4.20;;;1.60;;
75890;SDS011;64571;47.512;19.054;2023-10-08T14:56:48;4.50;;;1.05;;
75890;SDS011;64571;47.512;19.054;2023-10-08T14:59:51;3.50;;;1.00;;
75890;SDS011;64571;47.512;19.054;2023-10-08T15:02:54;5.05;;;1.17;;
75890;SDS011;64571;47.512;19.054;2023-10-08T15:05:58;8.13;;;4.03;;
75890;SDS011;64571;47.512;19.054;2023-10-08T15:09:01;4.55;;;1.35;;
75890;SDS011;64571;47.512;19.054;2023-10-08T15:12:04;7.22;;;1.42;;
75890;SDS011;64571;47.512;19.054;2023-10-08T15:15:08;5.47;;;1.90;;
75890;SDS011;64571;47.512;19.054;2023-10-08T15:18:17;5.12;;;2.08;;
75890;SDS011;64571;47.512;19.054;2023-10-08T15:21:21;3.70;;;1.10;;
75890;SDS011;64571;47.512;19.054;2023-10-08T15:24:23;3.55;;;0.90;;
75890;SDS011;64571;47.512;19.054;2023-10-08T15:27:27;4.62;;;1.50;;
75890;SDS011;64571;47.512;19.054;2023-10-08T15:30:33;15.18;;;5.90;;
75890;SDS011;64571;47.512;19.054;2023-10-08T15:33:36;4.00;;;1.00;;
75890;SDS011;64571;47.512;19.054;2023-10-08T15:36:39;5.90;;;1.50;;
75890;SDS011;64571;47.512;19.054;2023-10-08T15:39:42;4.87;;;1.58;;
75890;SDS011;64571;47.512;19.054;2023-10-08T15:42:48;5.28;;;1.98;;
75890;SDS011;64571;47.512;19.054;2023-10-08T15:45:53;4.40;;;1.20;;
75890;SDS011;64571;47.512;19.054;2023-10-08T15:48:56;4.82;;;1.10;;
75890;SDS011;64571;47.512;19.054;2023-10-08T15:51:59;4.73;;;1.40;;
75890;SDS011;64571;47.512;19.054;2023-10-08T15:55:03;4.80;;;1.50;;
75890;SDS011;64571;47.512;19.054;2023-10-08T15:58:07;6.55;;;1.90;;
75890;SDS011;64571;47.512;19.054;2023-10-08T16:01:09;5.25;;;1.70;;
75890;SDS011;64571;47.512;19.054;2023-10-08T16:04:14;7.53;;;2.78;;
75890;SDS011;64571;47.512;19.054;2023-10-08T16:07:17;4.67;;;1.50;;
75890;SDS011;64571;47.512;19.054;2023-10-08T16:10:20;5.57;;;1.85;;
75890;SDS011;64571;47.512;19.054;2023-10-08T16:13:23;6.40;;;1.95;;
75890;SDS011;64571;47.512;19.054;2023-10-08T16:16:26;4.95;;;1.70;;
75890;SDS011;64571;47.512;19.054;2023-10-08T16:19:28;7.12;;;2.95;;
75890;SDS011;64571;47.512;19.054;2023-10-08T16:22:31;5.80;;;1.93;;
75890;SDS011;64571;47.512;19.054;2023-10-08T16:25:34;5.87;;;1.75;;
75890;SDS011;64571;47.512;19.054;2023-10-08T16:28:38;4.90;;;1.60;;
75890;SDS011;64571;47.512;19.054;2023-10-08T16:31:41;7.00;;;2.10;;
75890;SDS011;64571;47.512;19.054;2023-10-08T16:34:46;7.75;;;2.62;;
75890;SDS011;64571;47.512;19.054;2023-10-08T16:37:49;8.83;;;2.00;;
75890;SDS011;64571;47.512;19.054;2023-10-08T16:40:52;6.22;;;2.05;;
75890;SDS011;64571;47.512;19.054;2023-10-08T16:43:55;7.00;;;2.22;;
75890;SDS011;64571;47.512;19.054;2023-10-08T16:46:57;5.40;;;1.70;;
75890;SDS011;64571;47.512;19.054;2023-10-08T16:50:00;5.12;;;1.52;;
75890;SDS011;64571;47.512;19.054;2023-10-08T16:53:03;7.33;;;1.80;;
75890;SDS011;64571;47.512;19.054;2023-10-08T16:56:05;6.15;;;1.75;;
75890;SDS011;64571;47.512;19.054;2023-10-08T16:59:09;8.65;;;1.90;;
75890;SDS011;64571;47.512;19.054;2023-10-08T17:02:13;6.53;;;1.92;;
75890;SDS011;64571;47.512;19.054;2023-10-08T17:05:17;5.40;;;1.75;;
75890;SDS011;64571;47.512;19.054;2023-10-08T17:08:20;6.30;;;1.60;;
75890;SDS011;64571;47.512;19.054;2023-10-08T17:11:23;7.45;;;1.73;;
75890;SDS011;64571;47.512;19.054;2023-10-08T17:14:29;5.57;;;1.50;;
75890;SDS011;64571;47.512;19.054;2023-10-08T17:17:32;6.85;;;2.60;;
75890;SDS011;64571;47.512;19.054;2023-10-08T17:20:34;5.97;;;1.27;;
75890;SDS011;64571;47.512;19.054;2023-10-08T17:23:37;6.73;;;1.40;;
75890;SDS011;64571;47.512;19.054;2023-10-08T17:26:40;7.80;;;1.80;;
75890;SDS011;64571;47.512;19.054;2023-10-08T17:29:44;6.15;;;1.73;;
75890;SDS011;64571;47.512;19.054;2023-10-08T17:32:47;4.68;;;1.37;;
75890;SDS011;64571;47.512;19.054;2023-10-08T17:35:52;5.65;;;1.35;;
75890;SDS011;64571;47.512;19.054;2023-10-08T17:38:55;5.13;;;1.53;;
75890;SDS011;64571;47.512;19.054;2023-10-08T17:41:58;5.82;;;1.80;;
75890;SDS011;64571;47.512;19.054;2023-10-08T17:45:01;5.00;;;1.67;;
75890;SDS011;64571;47.512;19.054;2023-10-08T17:48:04;6.37;;;1.75;;
75890;SDS011;64571;47.512;19.054;2023-10-08T17:51:08;8.07;;;2.20;;
75890;SDS011;64571;47.512;19.054;2023-10-08T17:54:12;8.03;;;2.60;;
75890;SDS011;64571;47.512;19.054;2023-10-08T17:57:15;7.65;;;2.50;;
75890;SDS011;64571;47.512;19.054;2023-10-08T18:00:19;7.03;;;2.00;;
75890;SDS011;64571;47.512;19.054;2023-10-08T18:03:24;12.10;;;3.00;;
75890;SDS011;64571;47.512;19.054;2023-10-08T18:06:26;7.22;;;2.65;;
75890;SDS011;64571;47.512;19.054;2023-10-08T18:09:29;5.77;;;1.57;;
75890;SDS011;64571;47.512;19.054;2023-10-08T18:12:32;6.47;;;1.60;;
75890;SDS011;64571;47.512;19.054;2023-10-08T18:15:35;5.90;;;1.75;;
75890;SDS011;64571;47.512;19.054;2023-10-08T18:18:38;5.57;;;1.85;;
75890;SDS011;64571;47.512;19.054;2023-10-08T18:21:42;6.35;;;1.70;;
75890;SDS011;64571;47.512;19.054;2023-10-08T18:24:46;8.13;;;1.93;;